Time;durP1;ratioP1;P1;durP2;ratioP2;P2;SDS_P1;SDS_P2;PMS_P1;PMS_P2;Temp;Humidity;BMP_temperature;BMP_pressure;BME280_temperature;BME280_humidity;BME280_pressure;Samples;Min_cycle;Max_cycle;Signal;HPM_P1;HPM_P2
2022/02/28 00:00:53;;;;;;;7.23;3.80;;;;;;;6.39;67.96;102395.81;2098274;28;20180;-66
2022/02/28 00:01:54;;;;;;;5.05;3.05;;;;;;;5.30;67.25;102224.75;2098494;28;20603;-66
2022/02/28 00:02:56;;;;;;;5.73;3.17;;;;;;;6.33;67.51;102381.56;2098422;28;20236;-66
2022/02/28 00:03:57;;;;;;;6.32;3.63;;;;;;;6.40;67.93;102394.69;2098231;28;20246;-66
2022/02/28 00:04:57;;;;;;;7.63;3.87;;;;;;;6.42;67.53;102397.88;2098525;28;20188;-66
2022/02/28 00:05:58;;;;;;;5.97;3.10;;;;;;;6.06;67.53;102316.44;2098479;28;20569;-66
2022/02/28 00:06:58;;;;;;;6.10;3.60;;;;;;;6.47;67.55;102390.09;2089513;28;20225;-66
2022/02/28 00:07:59;;;;;;;8.20;3.90;;;;;;;6.44;67.72;102379.81;2089604;28;20201;-66
2022/02/28 00:09:00;;;;;;;6.50;3.63;;;;;;;5.90;67.58;102301.97;2098507;28;20270;-66
2022/02/28 00:10:01;;;;;;;6.43;3.53;;;;;;;5.82;67.83;102299.41;2098203;28;20671;-66
2022/02/28 00:11:01;;;;;;;6.93;3.53;;;;;;;6.39;67.41;102376.53;2098545;28;20178;-66
2022/02/28 00:12:02;;;;;;;7.30;3.67;;;;;;;6.48;67.07;102393.66;2098446;28;20428;-66
2022/02/28 00:13:03;;;;;;;7.27;3.63;;;;;;;6.46;67.39;102385.75;2098436;28;20273;-66
2022/02/28 00:14:03;;;;;;;6.67;3.40;;;;;;;6.47;67.65;102381.81;2098493;28;20268;-66
2022/02/28 00:15:06;;;;;;;8.07;3.67;;;;;;;5.90;67.30;102284.66;2098422;28;20425;-66
2022/02/28 00:16:07;;;;;;;6.32;3.30;;;;;;;6.52;66.99;102381.53;2098395;28;20659;-66
2022/02/28 00:17:07;;;;;;;6.67;3.63;;;;;;;6.50;67.04;102385.81;2098319;28;20309;-66
2022/02/28 00:18:08;;;;;;;5.97;3.27;;;;;;;6.49;67.05;102382.28;2098364;28;20185;-66
2022/02/28 00:19:09;;;;;;;6.63;3.37;;;;;;;6.53;66.97;102377.66;2098418;28;20606;-66
2022/02/28 00:20:12;;;;;;;5.67;3.10;;;;;;;6.55;66.45;102380.81;2098035;28;20193;-66
2022/02/28 00:21:12;;;;;;;9.18;3.58;;;;;;;6.14;66.25;102309.94;2098433;28;20198;-66
2022/02/28 00:22:13;;;;;;;6.93;3.40;;;;;;;6.58;66.02;102369.09;2098282;28;20192;-66
2022/02/28 00:23:13;;;;;;;6.43;3.60;;;;;;;6.53;66.81;102374.91;2089194;28;20215;-66
2022/02/28 00:24:14;;;;;;;7.60;3.37;;;;;;;6.51;66.59;102374.44;2089431;28;20187;-66
2022/02/28 00:25:14;;;;;;;7.53;3.23;;;;;;;6.44;66.81;102363.28;2098446;28;20187;-66
2022/02/28 00:26:15;;;;;;;6.47;3.43;;;;;;;6.49;66.44;102370.44;2098169;28;20191;-67
2022/02/28 00:27:16;;;;;;;6.07;3.50;;;;;;;6.46;66.26;102377.47;2098041;28;20606;-67
2022/02/28 00:28:16;;;;;;;7.00;3.47;;;;;;;6.42;67.01;102371.09;2098365;28;20227;-67
2022/02/28 00:29:17;;;;;;;7.47;3.30;;;;;;;6.41;66.44;102372.25;2098374;28;20195;-67
2022/02/28 00:30:17;;;;;;;6.93;3.37;;;;;;;6.39;66.69;102369.09;2088888;28;20210;-67
2022/02/28 00:31:19;;;;;;;6.37;3.60;;;;;;;5.45;66.63;102223.91;2089530;28;20239;-66
2022/02/28 00:32:24;;;;;;;7.63;3.30;;;;;;;6.36;66.41;102366.25;2098278;28;20196;-66
2022/02/28 00:33:24;;;;;;;6.38;3.40;;;;;;;6.19;66.30;102342.69;2098137;28;20190;-67
2022/02/28 00:34:25;;;;;;;7.03;3.13;;;;;;;6.28;66.77;102361.75;2098294;28;20191;-67
2022/02/28 00:35:25;;;;;;;8.07;3.30;;;;;;;6.22;67.15;102357.69;2098139;28;20580;-67
2022/02/28 00:36:26;;;;;;;6.30;3.43;;;;;;;5.35;66.68;102240.97;2098304;28;20720;-66
2022/02/28 00:37:26;;;;;;;7.57;3.80;;;;;;;6.06;67.36;102370.72;2098215;28;20272;-67
2022/02/28 00:38:27;;;;;;;5.47;3.73;;;;;;;6.08;67.56;102360.94;2098257;28;20184;-66
2022/02/28 00:39:28;;;;;;;5.53;3.40;;;;;;;6.00;67.32;102370.19;2098240;28;20637;-67
2022/02/28 00:40:28;;;;;;;5.83;3.37;;;;;;;6.06;66.76;102371.50;2097902;28;20222;-66
2022/02/28 00:41:29;;;;;;;7.33;3.90;;;;;;;6.06;67.00;102368.75;2097816;28;20448;-67
2022/02/28 00:42:29;;;;;;;7.97;3.70;;;;;;;6.08;67.18;102363.69;2098034;28;20681;-66
2022/02/28 00:43:30;;;;;;;6.57;3.47;;;;;;;6.11;67.22;102362.19;2097807;28;20210;-66
2022/02/28 00:44:31;;;;;;;8.00;3.57;;;;;;;5.32;67.53;102249.91;2089172;28;20301;-66
2022/02/28 00:45:31;;;;;;;6.30;3.70;;;;;;;6.09;67.69;102358.97;2084104;28;20187;-66
2022/02/28 00:46:32;;;;;;;6.13;3.63;;;;;;;4.77;67.88;102143.81;2090180;28;20272;-66
2022/02/28 00:47:32;;;;;;;6.87;3.33;;;;;;;6.01;67.09;102341.50;2098121;28;20617;-66
2022/02/28 00:48:32;;;;;;;5.47;3.27;;;;;;;6.06;66.85;102352.22;2097921;28;20664;-66
2022/02/28 00:49:34;;;;;;;7.07;3.37;;;;;;;6.04;67.37;102348.25;2098108;28;20256;-66
2022/02/28 00:50:34;;;;;;;5.57;3.20;;;;;;;6.02;66.58;102348.63;2097767;28;20188;-66
2022/02/28 00:51:35;;;;;;;6.00;3.57;;;;;;;5.71;66.65;102287.34;2098079;28;20710;-66
2022/02/28 00:52:35;;;;;;;6.43;3.30;;;;;;;6.05;67.78;102341.59;2098103;28;20189;-67
2022/02/28 00:53:36;;;;;;;6.50;3.20;;;;;;;5.58;67.84;102272.91;2097961;28;20190;-66
2022/02/28 00:54:37;;;;;;;6.23;3.30;;;;;;;6.06;67.03;102356.97;2098125;28;20565;-66
2022/02/28 00:55:37;;;;;;;8.93;3.73;;;;;;;6.06;67.00;102348.69;2098060;28;20222;-66
2022/02/28 00:56:38;;;;;;;6.57;3.60;;;;;;;6.04;67.21;102338.06;2098058;28;20178;-66
2022/02/28 00:57:40;;;;;;;6.03;3.60;;;;;;;6.05;67.14;102342.38;2097997;28;20184;-66
2022/02/28 00:58:40;;;;;;;6.00;3.35;;;;;;;6.04;67.42;102342.75;2094751;28;20418;-66
2022/02/28 00:59:41;;;;;;;5.50;3.37;;;;;;;6.06;67.54;102338.47;2098023;28;20188;-66
2022/02/28 01:00:41;;;;;;;6.47;3.30;;;;;;;5.96;67.18;102327.25;2097672;28;20336;-66
2022/02/28 01:01:42;;;;;;;6.17;3.27;;;;;;;5.97;67.88;102331.59;2098000;28;20189;-66
2022/02/28 01:02:43;;;;;;;8.83;3.87;;;;;;;5.64;68.00;102293.50;2097834;28;20212;-66
2022/02/28 01:03:43;;;;;;;7.03;3.20;;;;;;;4.97;67.77;102183.16;2097772;28;20565;-66
2022/02/28 01:04:44;;;;;;;4.97;3.07;;;;;;;5.15;67.38;102201.66;2098030;28;20182;-66
2022/02/28 01:05:44;;;;;;;8.90;3.63;;;;;;;6.03;67.78;102330.16;2098001;28;20269;-66
2022/02/28 01:06:45;;;;;;;7.37;3.70;;;;;;;6.03;67.44;102341.16;2097970;28;20249;-66
2022/02/28 01:07:47;;;;;;;8.00;3.73;;;;;;;5.35;67.55;102227.22;2097899;28;20185;-66
2022/02/28 01:08:48;;;;;;;5.28;3.20;;;;;;;6.04;67.64;102334.47;2097995;28;20209;-66
2022/02/28 01:09:49;;;;;;;7.80;3.90;;;;;;;5.82;67.08;102291.16;2097660;28;20186;-66
2022/02/28 01:10:50;;;;;;;7.07;4.10;;;;;;;6.07;67.30;102331.84;2088824;28;20217;-66
2022/02/28 01:11:51;;;;;;;6.07;3.63;;;;;;;6.03;67.20;102333.72;2089112;28;20209;-66
2022/02/28 01:12:53;;;;;;;7.37;3.43;;;;;;;6.03;67.03;102327.41;2089044;28;20196;-66
2022/02/28 01:13:54;;;;;;;8.30;3.25;;;;;;;6.08;67.74;102332.63;2088997;28;20194;-66
2022/02/28 01:14:54;;;;;;;6.67;3.87;;;;;;;6.06;67.42;102332.97;2097867;28;20193;-66
2022/02/28 01:15:55;;;;;;;6.93;3.77;;;;;;;6.05;67.35;102333.34;2097914;28;20609;-66
2022/02/28 01:16:55;;;;;;;6.63;4.10;;;;;;;6.07;67.66;102331.84;2097887;28;20198;-66
2022/02/28 01:17:56;;;;;;;7.00;3.73;;;;;;;6.08;67.65;102329.88;2097730;28;20187;-66
2022/02/28 01:18:56;;;;;;;6.43;3.77;;;;;;;6.05;67.69;102325.09;2097959;28;20190;-66
2022/02/28 01:19:58;;;;;;;7.57;4.20;;;;;;;4.81;67.04;102132.91;2097459;28;20188;-66
2022/02/28 01:20:59;;;;;;;5.18;3.28;;;;;;;6.06;67.09;102330.22;2097899;28;20212;-66
2022/02/28 01:21:59;;;;;;;6.73;3.83;;;;;;;6.05;66.79;102325.09;2097805;28;20189;-66
2022/02/28 01:23:00;;;;;;;8.43;3.80;;;;;;;6.03;67.39;102324.63;2094383;28;20305;-66
2022/02/28 01:24:00;;;;;;;7.17;3.80;;;;;;;5.98;67.04;102322.97;2097748;28;20665;-66
2022/02/28 01:25:01;;;;;;;6.47;3.90;;;;;;;5.30;66.67;102219.25;2097895;28;20218;-66
2022/02/28 01:26:02;;;;;;;6.60;3.60;;;;;;;5.93;65.90;102314.19;2097792;28;20201;-66
2022/02/28 01:27:03;;;;;;;6.15;3.47;;;;;;;6.02;66.27;102325.81;2097729;28;20210;-66
2022/02/28 01:28:04;;;;;;;5.95;3.55;;;;;;;5.89;66.74;102294.88;2097934;28;20186;-66
2022/02/28 01:29:04;;;;;;;7.10;3.43;;;;;;;5.35;66.59;102235.47;2088970;28;20238;-66
2022/02/28 01:30:06;;;;;;;7.70;3.80;;;;;;;5.94;66.23;102324.84;2088611;28;20221;-66
2022/02/28 01:31:06;;;;;;;5.88;3.20;;;;;;;5.82;66.76;102319.47;2097743;28;20186;-66
2022/02/28 01:32:07;;;;;;;8.23;3.53;;;;;;;5.26;66.35;102252.16;2097827;28;20245;-66
2022/02/28 01:33:08;;;;;;;6.60;3.60;;;;;;;5.68;66.88;102326.56;2097480;28;20189;-66
2022/02/28 01:34:09;;;;;;;4.93;3.50;;;;;;;5.50;66.89;102292.38;2097761;28;20203;-66
2022/02/28 01:35:11;;;;;;;6.93;3.50;;;;;;;5.80;67.12;102315.50;2097958;28;20185;-66
2022/02/28 01:36:12;;;;;;;6.10;3.55;;;;;;;5.80;67.22;102307.25;2097591;28;20274;-66
2022/02/28 01:37:12;;;;;;;6.60;3.37;;;;;;;5.84;66.47;102322.66;2097666;28;20189;-66
2022/02/28 01:38:13;;;;;;;7.10;3.73;;;;;;;5.81;67.00;102323.41;2097793;28;20215;-66
2022/02/28 01:39:13;;;;;;;5.47;3.40;;;;;;;5.76;67.25;102317.34;2097898;28;20188;-66
2022/02/28 01:40:15;;;;;;;8.13;3.43;;;;;;;5.85;67.03;102328.97;2097340;28;20662;-66
2022/02/28 01:41:15;;;;;;;6.40;3.60;;;;;;;5.69;65.97;102304.22;2097758;28;20180;-66
2022/02/28 01:42:16;;;;;;;7.13;3.50;;;;;;;5.81;66.30;102337.16;2088764;28;20279;-66
2022/02/28 01:43:17;;;;;;;4.97;3.38;;;;;;;5.28;66.39;102244.34;2088649;28;20281;-66
2022/02/28 01:44:18;;;;;;;6.53;3.40;;;;;;;5.33;66.50;102243.28;2088795;28;20658;-66
2022/02/28 01:45:22;;;;;;;5.93;3.53;;;;;;;5.84;66.13;102319.13;2088918;28;20258;-66
2022/02/28 01:46:22;;;;;;;7.72;3.92;;;;;;;5.83;65.95;102312.00;2097712;28;20271;-66
2022/02/28 01:47:23;;;;;;;5.87;3.37;;;;;;;5.61;66.27;102274.97;2097691;28;20187;-66
2022/02/28 01:48:23;;;;;;;6.67;3.63;;;;;;;5.72;66.48;102292.50;2097629;28;20213;-66
2022/02/28 01:49:24;;;;;;;5.90;3.30;;;;;;;5.78;65.71;102304.00;2097745;28;20191;-66
2022/02/28 01:50:26;;;;;;;6.90;3.40;;;;;;;5.68;65.68;102313.63;2097449;28;20186;-66
2022/02/28 01:51:27;;;;;;;6.93;3.80;;;;;;;5.65;66.65;102317.06;2097710;28;20199;-66
2022/02/28 01:52:28;;;;;;;6.80;3.38;;;;;;;5.74;66.85;102309.44;2097653;28;20210;-66
2022/02/28 01:53:28;;;;;;;8.57;3.90;;;;;;;5.64;66.59;102298.22;2097579;28;20179;-66
2022/02/28 01:54:29;;;;;;;5.97;3.53;;;;;;;5.31;66.25;102249.13;2097780;28;20247;-66
2022/02/28 01:55:30;;;;;;;7.30;3.60;;;;;;;5.01;66.67;102193.06;2097752;28;20182;-67
2022/02/28 01:56:31;;;;;;;9.23;3.50;;;;;;;5.61;66.66;102290.66;2097683;28;20186;-66
2022/02/28 01:57:32;;;;;;;8.70;4.00;;;;;;;5.61;67.11;102285.16;2088541;28;20270;-66
2022/02/28 01:58:37;;;;;;;8.60;5.57;;;;;;;5.77;66.77;102310.66;2088858;28;20176;-66
2022/02/28 01:59:38;;;;;;;9.30;5.15;;;;;;;5.67;67.01;102319.47;2097661;28;20180;-66
2022/02/28 02:00:38;;;;;;;7.97;5.00;;;;;;;5.42;67.21;102276.84;2097362;28;20173;-66
2022/02/28 02:01:39;;;;;;;8.73;5.60;;;;;;;5.64;67.74;102323.75;2097611;28;20186;-66
2022/02/28 02:02:41;;;;;;;8.47;5.40;;;;;;;5.62;67.68;102315.06;2097632;28;20178;-66
2022/02/28 02:03:42;;;;;;;10.15;6.00;;;;;;;5.64;68.29;102314.72;2097282;28;20338;-66
2022/02/28 02:04:42;;;;;;;9.70;5.83;;;;;;;5.19;67.90;102245.69;2097656;28;20187;-66
2022/02/28 02:05:43;;;;;;;10.03;5.50;;;;;;;5.62;68.41;102309.56;2097661;28;20189;-66
2022/02/28 02:06:44;;;;;;;9.05;6.40;;;;;;;5.63;68.23;102311.16;2097584;28;20565;-66
2022/02/28 02:07:47;;;;;;;8.67;5.63;;;;;;;5.57;68.04;102315.34;2097615;28;20208;-66
2022/02/28 02:08:47;;;;;;;10.82;6.15;;;;;;;4.50;67.80;102161.22;2097664;28;20412;-66
2022/02/28 02:09:48;;;;;;;8.07;6.07;;;;;;;5.50;68.88;102309.69;2097418;28;20186;-66
2022/02/28 02:10:49;;;;;;;11.80;5.90;;;;;;;5.57;68.89;102306.28;2094198;28;20320;-66
2022/02/28 02:11:50;;;;;;;10.15;6.13;;;;;;;5.57;68.04;102306.28;2097559;28;20187;-66
2022/02/28 02:12:51;;;;;;;10.43;6.90;;;;;;;5.57;68.98;102312.59;2097656;28;20675;-66
2022/02/28 02:13:52;;;;;;;9.02;6.80;;;;;;;5.58;69.51;102305.94;2097366;28;20187;-66
2022/02/28 02:14:53;;;;;;;10.33;6.70;;;;;;;5.61;69.10;102307.16;2089344;28;20282;-66
2022/02/28 02:15:54;;;;;;;11.60;7.32;;;;;;;5.61;69.59;102307.16;2090543;28;20248;-66
2022/02/28 02:16:54;;;;;;;12.47;7.30;;;;;;;5.56;68.86;102297.25;2099398;28;20654;-66
2022/02/28 02:17:57;;;;;;;8.70;6.57;;;;;;;5.50;68.96;102279.44;2099105;28;20658;-66
2022/02/28 02:18:58;;;;;;;11.32;6.68;;;;;;;5.69;69.46;102306.19;2099261;28;20186;-66
2022/02/28 02:20:05;;;;;;;8.43;6.80;;;;;;;5.71;69.03;102309.34;2098883;28;20194;-66
2022/02/28 02:21:06;;;;;;;9.95;7.25;;;;;;;5.67;69.30;102308.47;2099222;28;20178;-66
2022/02/28 02:22:07;;;;;;;11.43;6.87;;;;;;;5.70;68.87;102316.81;2099249;28;20269;-66
2022/02/28 02:23:10;;;;;;;9.63;7.07;;;;;;;5.69;68.50;102311.69;2098857;28;20313;-66
2022/02/28 02:24:10;;;;;;;11.98;6.50;;;;;;;5.68;68.82;102310.06;2099213;28;20547;-66
2022/02/28 02:25:11;;;;;;;8.90;6.47;;;;;;;5.30;69.49;102247.53;2099367;28;20498;-66
2022/02/28 02:26:14;;;;;;;10.17;6.00;;;;;;;5.61;68.78;102315.41;2090251;28;20275;-66
2022/02/28 02:27:14;;;;;;;7.82;5.60;;;;;;;5.62;69.01;102328.81;2090662;28;20189;-66
2022/02/28 02:28:17;;;;;;;9.97;6.07;;;;;;;5.59;68.79;102310.25;2099315;28;20245;-66
2022/02/28 02:29:17;;;;;;;7.07;5.63;;;;;;;5.61;69.61;102307.97;2099283;28;20637;-66
2022/02/28 02:30:20;;;;;;;9.07;5.80;;;;;;;4.53;68.81;102146.78;2098672;28;20207;-66
2022/02/28 02:31:21;;;;;;;7.80;5.50;;;;;;;5.62;69.20;102301.31;2099143;28;20180;-66
2022/02/28 02:32:21;;;;;;;9.47;6.27;;;;;;;5.44;69.41;102280.84;2099155;28;20210;-66
2022/02/28 02:33:22;;;;;;;9.33;5.87;;;;;;;5.63;69.44;102308.41;2098976;28;20651;-66
2022/02/28 02:34:23;;;;;;;9.00;6.10;;;;;;;4.61;68.61;102147.75;2099088;28;20616;-66
2022/02/28 02:35:24;;;;;;;9.17;6.40;;;;;;;5.67;68.78;102303.78;2099053;28;20236;-66
2022/02/28 02:36:24;;;;;;;7.33;5.60;;;;;;;5.58;68.51;102291.38;2099054;28;20190;-66
2022/02/28 02:37:25;;;;;;;9.37;5.97;;;;;;;5.63;69.00;102304.84;2098998;28;20226;-66
2022/02/28 02:38:27;;;;;;;8.43;5.93;;;;;;;5.62;69.05;102303.25;2099161;28;20189;-66
2022/02/28 02:39:28;;;;;;;7.70;5.88;;;;;;;5.11;68.95;102244.72;2099262;28;20583;-66
2022/02/28 02:40:28;;;;;;;8.30;5.60;;;;;;;5.27;69.58;102248.25;2098779;28;20184;-66
2022/02/28 02:41:29;;;;;;;12.30;5.67;;;;;;;5.63;69.12;102302.91;2089857;28;20193;-66
2022/02/28 02:42:29;;;;;;;8.50;5.60;;;;;;;5.06;69.14;102216.72;2090345;28;20188;-66
2022/02/28 02:43:30;;;;;;;9.83;5.40;;;;;;;5.65;68.55;102295.06;2098709;28;20291;-66
2022/02/28 02:44:32;;;;;;;8.60;5.50;;;;;;;5.64;68.18;102298.22;2099022;28;20240;-66
2022/02/28 02:45:33;;;;;;;8.10;5.70;;;;;;;4.99;68.63;102200.06;2099035;28;20552;-66
2022/02/28 02:46:47;;;;;;;8.40;5.27;;;;;;;4.84;68.51;102185.19;2099121;28;20202;-66
2022/02/28 02:47:47;;;;;;;8.70;5.60;;;;;;;5.58;68.58;102289.41;2098941;28;20183;-66
2022/02/28 02:48:48;;;;;;;8.47;5.20;;;;;;;5.62;69.06;102292.25;2099182;28;20212;-66
2022/02/28 02:49:48;;;;;;;7.97;5.43;;;;;;;5.58;69.36;102294.94;2098750;28;20191;-66
2022/02/28 02:50:49;;;;;;;8.27;5.10;;;;;;;5.60;68.68;102298.09;2098719;28;20286;-66
2022/02/28 02:51:49;;;;;;;7.53;5.50;;;;;;;5.54;69.35;102288.53;2098963;28;20666;-66
2022/02/28 02:52:50;;;;;;;9.93;5.70;;;;;;;5.57;69.46;102296.09;2098952;28;20244;-66
2022/02/28 02:53:50;;;;;;;7.93;5.60;;;;;;;5.48;69.33;102283.69;2098805;28;20184;-66
2022/02/28 02:54:51;;;;;;;9.97;5.17;;;;;;;5.16;69.16;102254.63;2099042;28;20193;-66
2022/02/28 02:55:52;;;;;;;8.03;5.13;;;;;;;4.82;69.16;102190.25;2098966;28;20189;-66
2022/02/28 02:56:52;;;;;;;8.87;5.40;;;;;;;5.51;69.14;102294.78;2098941;28;20676;-66
2022/02/28 02:57:52;;;;;;;7.93;5.10;;;;;;;5.51;69.30;102297.53;2098902;28;20762;-66
2022/02/28 02:58:53;;;;;;;8.90;5.30;;;;;;;5.41;68.95;102292.56;2098891;28;20187;-66
2022/02/28 02:59:53;;;;;;;8.20;5.20;;;;;;;5.38;69.78;102295.25;2098457;28;20194;-66
2022/02/28 03:00:54;;;;;;;7.67;5.00;;;;;;;4.58;69.66;102190.44;2098900;28;20248;-66
2022/02/28 03:01:55;;;;;;;10.20;5.40;;;;;;;5.33;69.56;102295.50;2089838;28;20194;-66
2022/02/28 03:02:55;;;;;;;8.67;5.13;;;;;;;5.35;69.56;102294.00;2089827;28;20219;-66
2022/02/28 03:03:56;;;;;;;7.97;4.83;;;;;;;5.18;69.63;102260.59;2098516;28;20193;-65
2022/02/28 03:04:57;;;;;;;7.83;5.90;;;;;;;5.37;69.64;102299.13;2098971;28;20675;-66
2022/02/28 03:05:57;;;;;;;7.80;5.27;;;;;;;5.38;69.65;102293.28;2098720;28;20202;-66
2022/02/28 03:06:58;;;;;;;9.30;4.97;;;;;;;5.34;69.55;102294.34;2098948;28;20194;-66
2022/02/28 03:07:58;;;;;;;8.47;5.23;;;;;;;5.29;69.51;102292.66;2098686;28;20272;-66
2022/02/28 03:08:59;;;;;;;7.20;4.77;;;;;;;5.27;70.43;102289.47;2098864;28;20212;-66
2022/02/28 03:09:59;;;;;;;8.53;5.00;;;;;;;4.70;70.43;102203.25;2098221;28;20193;-66
2022/02/28 03:11:00;;;;;;;8.63;5.40;;;;;;;5.31;70.52;102295.88;2098790;28;20182;-66
2022/02/28 03:12:00;;;;;;;7.07;5.37;;;;;;;5.32;70.55;102299.41;2098671;28;20190;-66
2022/02/28 03:13:01;;;;;;;7.53;5.13;;;;;;;5.29;70.56;102295.41;2098667;28;20213;-66
2022/02/28 03:14:01;;;;;;;9.90;5.90;;;;;;;5.28;70.27;102291.06;2098716;28;20302;-66
2022/02/28 03:15:03;;;;;;;8.37;5.00;;;;;;;5.29;70.21;102286.38;2098736;28;20593;-66
2022/02/28 03:16:04;;;;;;;9.10;5.53;;;;;;;5.30;70.88;102287.97;2098797;28;20528;-66
2022/02/28 03:17:05;;;;;;;7.70;5.28;;;;;;;4.61;70.75;102172.47;2098826;28;20568;-66
2022/02/28 03:18:06;;;;;;;7.72;5.55;;;;;;;5.29;70.66;102278.13;2089801;28;20203;-65
2022/02/28 03:19:06;;;;;;;8.10;5.17;;;;;;;4.25;70.53;102140.56;2089929;28;20225;-66
2022/02/28 03:20:07;;;;;;;7.27;5.53;;;;;;;5.33;70.81;102284.53;2098206;28;20232;-65
2022/02/28 03:21:08;;;;;;;7.85;5.40;;;;;;;5.37;70.40;102277.13;2098917;28;20669;-66
2022/02/28 03:22:08;;;;;;;8.53;5.37;;;;;;;5.38;70.66;102281.50;2098635;28;20186;-65
2022/02/28 03:23:09;;;;;;;8.53;5.37;;;;;;;4.33;70.64;102114.91;2098476;28;20206;-66
2022/02/28 03:24:10;;;;;;;8.27;5.53;;;;;;;5.43;70.41;102282.00;2098607;28;20548;-65
2022/02/28 03:25:11;;;;;;;9.05;5.05;;;;;;;5.38;70.02;102276.78;2098806;28;20189;-65
2022/02/28 03:26:11;;;;;;;8.33;5.43;;;;;;;5.40;70.21;102274.50;2098524;28;20672;-66
2022/02/28 03:27:12;;;;;;;10.30;5.83;;;;;;;5.37;70.58;102277.94;2098768;28;20182;-66
2022/02/28 03:28:12;;;;;;;8.03;5.23;;;;;;;5.37;70.58;102275.19;2089563;28;20195;-66
2022/02/28 03:29:13;;;;;;;10.00;5.00;;;;;;;5.40;70.15;102279.97;2089994;28;20194;-66
2022/02/28 03:30:13;;;;;;;6.97;5.13;;;;;;;5.40;70.10;102290.16;2098170;28;20567;-66
2022/02/28 03:31:14;;;;;;;8.87;5.60;;;;;;;5.36;69.94;102265.34;2098779;28;20221;-66
2022/02/28 03:32:14;;;;;;;7.73;5.40;;;;;;;5.12;70.22;102218.84;2098381;28;20182;-65
2022/02/28 03:33:15;;;;;;;8.27;5.57;;;;;;;5.42;70.70;102277.66;2098584;28;20474;-66
2022/02/28 03:34:15;;;;;;;7.13;5.40;;;;;;;5.42;70.19;102280.41;2098497;28;20194;-66
2022/02/28 03:35:16;;;;;;;7.60;5.10;;;;;;;5.25;69.83;102241.50;2098726;28;20336;-66
2022/02/28 03:36:16;;;;;;;9.27;5.40;;;;;;;5.44;70.60;102269.84;2089697;28;20206;-66
2022/02/28 03:37:17;;;;;;;7.67;5.20;;;;;;;5.45;70.71;102273.41;2089760;28;20281;-66
2022/02/28 03:38:17;;;;;;;9.23;5.83;;;;;;;5.49;70.45;102275.06;2098573;28;20262;-66
2022/02/28 03:39:18;;;;;;;8.30;5.83;;;;;;;5.50;70.48;102276.69;2098692;28;20733;-66
2022/02/28 03:40:18;;;;;;;11.03;5.67;;;;;;;5.17;70.32;102232.31;2098269;28;20659;-66
2022/02/28 03:41:19;;;;;;;8.50;5.63;;;;;;;5.46;70.05;102275.81;2098512;28;20735;-66
2022/02/28 03:42:19;;;;;;;8.17;5.67;;;;;;;5.43;70.17;102271.00;2098637;28;20175;-66
2022/02/28 03:43:20;;;;;;;7.57;5.93;;;;;;;5.39;69.72;102275.63;2089183;28;20219;-66
2022/02/28 03:44:21;;;;;;;8.83;5.57;;;;;;;5.33;70.32;102279.03;2089715;28;20184;-66
2022/02/28 03:45:22;;;;;;;8.88;5.93;;;;;;;4.93;70.35;102217.97;2094205;28;20183;-66
2022/02/28 03:46:22;;;;;;;8.57;6.37;;;;;;;4.46;70.64;102132.84;2097590;28;20193;-66
2022/02/28 03:47:23;;;;;;;10.40;6.70;;;;;;;5.40;71.01;102274.50;2098443;28;20187;-66
2022/02/28 03:48:23;;;;;;;8.87;6.00;;;;;;;5.40;70.08;102282.72;2097170;28;20220;-66
2022/02/28 03:49:24;;;;;;;8.77;5.57;;;;;;;5.36;70.05;102281.84;2097792;28;20183;-66
2022/02/28 03:50:25;;;;;;;11.90;7.07;;;;;;;5.35;70.20;102276.69;2098042;28;20185;-66
2022/02/28 03:51:25;;;;;;;9.17;6.43;;;;;;;5.34;70.11;102278.63;2098522;28;20190;-66
2022/02/28 03:52:26;;;;;;;10.33;6.90;;;;;;;5.24;70.60;102267.41;2098364;28;20186;-66
2022/02/28 03:53:26;;;;;;;11.17;6.97;;;;;;;5.32;70.23;102278.22;2098162;28;20205;-66
2022/02/28 03:54:27;;;;;;;12.40;7.43;;;;;;;4.61;70.52;102164.22;2098540;28;20445;-66
2022/02/28 03:55:27;;;;;;;10.47;6.77;;;;;;;5.34;70.46;102275.13;2098282;28;20219;-66
2022/02/28 03:56:28;;;;;;;10.67;6.87;;;;;;;5.38;70.86;102281.50;2098462;28;20186;-66
2022/02/28 03:57:28;;;;;;;11.63;7.27;;;;;;;5.39;71.02;102292.13;2098274;28;20234;-66
2022/02/28 03:58:30;;;;;;;9.43;6.47;;;;;;;5.39;70.48;102300.34;2098480;28;20179;-66
2022/02/28 03:59:31;;;;;;;9.07;6.65;;;;;;;5.39;70.44;102281.13;2098358;28;20672;-66
2022/02/28 04:00:31;;;;;;;8.37;5.97;;;;;;;5.36;70.66;102270.03;2089044;28;20188;-66
2022/02/28 04:01:32;;;;;;;11.00;6.73;;;;;;;5.44;71.01;102280.84;2089608;28;20188;-66
2022/02/28 04:02:32;;;;;;;10.50;6.90;;;;;;;5.46;70.45;102278.56;2098415;28;20221;-66
2022/02/28 04:03:33;;;;;;;10.77;6.90;;;;;;;5.46;70.67;102286.81;2098261;28;20208;-66
2022/02/28 04:04:34;;;;;;;10.33;6.87;;;;;;;5.46;70.55;102281.31;2098476;28;20191;-66
2022/02/28 04:05:34;;;;;;;9.10;7.00;;;;;;;5.48;70.62;102283.69;2098377;28;20189;-66
2022/02/28 04:06:35;;;;;;;9.43;6.30;;;;;;;4.87;70.58;102175.47;2098582;28;20579;-66
2022/02/28 04:07:36;;;;;;;8.25;6.30;;;;;;;5.45;70.13;102278.91;2089218;28;20197;-66
2022/02/28 04:08:37;;;;;;;10.97;6.17;;;;;;;5.43;70.63;102282.00;2089499;28;20213;-66
2022/02/28 04:09:39;;;;;;;9.00;6.07;;;;;;;4.58;70.12;102149.25;2098318;28;20274;-66
2022/02/28 04:10:40;;;;;;;9.05;5.85;;;;;;;5.04;69.78;102232.75;2097873;28;20558;-66
2022/02/28 04:11:41;;;;;;;9.70;6.30;;;;;;;5.27;70.50;102277.66;2089355;28;20198;-66
2022/02/28 04:12:43;;;;;;;10.95;6.65;;;;;;;5.16;70.24;102251.88;2089649;28;20184;-66
2022/02/28 04:13:43;;;;;;;10.30;6.30;;;;;;;5.16;70.46;102271.94;2097871;28;20248;-65
2022/02/28 04:14:45;;;;;;;9.83;6.53;;;;;;;5.05;71.02;102273.63;2098375;28;20187;-66
2022/02/28 04:15:45;;;;;;;10.02;6.72;;;;;;;4.28;70.82;102167.31;2098183;28;20261;-65
2022/02/28 04:16:46;;;;;;;9.73;6.37;;;;;;;5.10;70.76;102278.84;2098339;28;20183;-66
2022/02/28 04:17:47;;;;;;;9.37;6.10;;;;;;;5.14;71.19;102271.47;2097981;28;20187;-66
2022/02/28 04:18:47;;;;;;;9.23;5.70;;;;;;;5.20;70.04;102272.03;2098212;28;20221;-66
2022/02/28 04:19:48;;;;;;;9.27;5.83;;;;;;;5.18;69.88;102271.59;2097974;28;20560;-66
2022/02/28 04:20:48;;;;;;;8.70;5.80;;;;;;;5.15;70.61;102267.59;2098375;28;20179;-66
2022/02/28 04:21:49;;;;;;;10.00;5.87;;;;;;;5.20;69.82;102272.03;2089330;28;20685;-66
2022/02/28 04:22:49;;;;;;;9.27;6.10;;;;;;;4.03;69.63;102088.22;2089372;28;20187;-66
2022/02/28 04:23:51;;;;;;;9.70;5.87;;;;;;;5.30;70.12;102276.97;2097961;28;20669;-66
2022/02/28 04:24:51;;;;;;;10.40;6.03;;;;;;;5.32;70.10;102274.66;2098228;28;20576;-66
2022/02/28 04:25:52;;;;;;;9.03;5.50;;;;;;;4.69;69.87;102198.94;2098059;28;20210;-66
2022/02/28 04:26:53;;;;;;;8.57;5.40;;;;;;;4.88;69.59;102215.50;2098198;28;20185;-66
2022/02/28 04:27:53;;;;;;;11.17;5.93;;;;;;;5.27;69.68;102300.47;2098080;28;20187;-65
2022/02/28 04:28:54;;;;;;;8.23;6.00;;;;;;;5.18;69.68;102269.63;2098300;28;20586;-66
2022/02/28 04:29:54;;;;;;;9.13;5.93;;;;;;;4.93;69.87;102235.25;2097449;28;20266;-66
2022/02/28 04:30:55;;;;;;;10.63;6.20;;;;;;;5.21;70.32;102277.16;2098115;28;20194;-66
2022/02/28 04:31:55;;;;;;;9.47;6.47;;;;;;;4.49;69.92;102162.38;2098122;28;20568;-66
2022/02/28 04:32:56;;;;;;;9.90;5.90;;;;;;;5.22;70.40;102277.94;2098153;28;20183;-66
2022/02/28 04:33:56;;;;;;;9.80;6.17;;;;;;;5.20;69.65;102280.25;2097849;28;20183;-66
2022/02/28 04:34:57;;;;;;;8.57;5.77;;;;;;;5.04;69.17;102279.47;2098113;28;20187;-66
2022/02/28 04:35:57;;;;;;;9.07;5.30;;;;;;;4.99;69.46;102277.81;2098100;28;20197;-66
2022/02/28 04:36:58;;;;;;;9.23;6.43;;;;;;;4.78;70.46;102274.50;2098082;28;20186;-66
2022/02/28 04:37:58;;;;;;;8.80;6.20;;;;;;;3.82;70.74;102123.31;2097251;28;20183;-66
2022/02/28 04:38:59;;;;;;;8.00;6.10;;;;;;;4.88;71.08;102273.97;2098073;28;20191;-66
2022/02/28 04:40:00;;;;;;;12.27;6.70;;;;;;;4.73;70.75;102247.28;2097488;28;20182;-65
2022/02/28 04:41:00;;;;;;;10.00;6.93;;;;;;;4.90;71.67;102279.94;2098078;28;20207;-66
2022/02/28 04:42:00;;;;;;;9.83;7.07;;;;;;;4.82;71.04;102255.38;2097917;28;20290;-66
2022/02/28 04:43:01;;;;;;;9.80;7.13;;;;;;;4.93;71.00;102281.94;2097831;28;20203;-66
2022/02/28 04:44:02;;;;;;;8.67;6.80;;;;;;;3.83;71.20;102114.75;2097961;28;20183;-66
2022/02/28 04:45:04;;;;;;;10.82;7.07;;;;;;;4.81;71.01;102283.97;2089204;28;20198;-66
2022/02/28 04:46:05;;;;;;;10.88;7.18;;;;;;;4.72;71.29;102286.91;2089497;28;20207;-66